sensor_id;sensor_type;location;lat;lon;timestamp;temperature;humidity
69009;SHT31;56065;52.472;13.380;2023-06-14T00:01:31;15.82;69.16
69009;SHT31;56065;52.472;13.380;2023-06-14T00:03:59;15.82;69.68
69009;SHT31;56065;52.472;13.380;2023-06-14T00:06:25;15.77;69.61
69009;SHT31;56065;52.472;13.380;2023-06-14T00:08:51;15.79;69.62
69009;SHT31;56065;52.472;13.380;2023-06-14T00:11:16;15.77;69.71
69009;SHT31;56065;52.472;13.380;2023-06-14T00:13:42;15.79;69.78
69009;SHT31;56065;52.472;13.380;2023-06-14T00:16:08;15.74;70.07
69009;SHT31;56065;52.472;13.380;2023-06-14T00:18:33;15.74;70.20
69009;SHT31;56065;52.472;13.380;2023-06-14T00:20:59;15.73;70.18
69009;SHT31;56065;52.472;13.380;2023-06-14T00:23:25;15.70;70.50
69009;SHT31;56065;52.472;13.380;2023-06-14T00:25:50;15.67;70.72
69009;SHT31;56065;52.472;13.380;2023-06-14T00:28:16;15.70;70.94
69009;SHT31;56065;52.472;13.380;2023-06-14T00:30:41;15.66;70.96
69009;SHT31;56065;52.472;13.380;2023-06-14T00:33:09;15.65;70.78
69009;SHT31;56065;52.472;13.380;2023-06-14T00:35:34;15.60;71.39
69009;SHT31;56065;52.472;13.380;2023-06-14T00:37:59;15.60;71.79
69009;SHT31;56065;52.472;13.380;2023-06-14T00:40:25;15.57;71.73
69009;SHT31;56065;52.472;13.380;2023-06-14T00:42:50;15.59;71.85
69009;SHT31;56065;52.472;13.380;2023-06-14T00:45:16;15.56;71.94
69009;SHT31;56065;52.472;13.380;2023-06-14T00:47:43;15.56;71.67
69009;SHT31;56065;52.472;13.380;2023-06-14T00:50:09;15.50;72.42
69009;SHT31;56065;52.472;13.380;2023-06-14T00:52:35;15.50;72.75
69009;SHT31;56065;52.472;13.380;2023-06-14T00:55:01;15.47;72.82
69009;SHT31;56065;52.472;13.380;2023-06-14T00:57:27;15.42;73.53
69009;SHT31;56065;52.472;13.380;2023-06-14T00:59:52;15.42;73.60
69009;SHT31;56065;52.472;13.380;2023-06-14T01:02:19;15.42;73.41
69009;SHT31;56065;52.472;13.380;2023-06-14T01:04:46;15.46;74.03
69009;SHT31;56065;52.472;13.380;2023-06-14T01:07:38;15.42;73.80
69009;SHT31;56065;52.472;13.380;2023-06-14T01:15:39;15.35;74.41
69009;SHT31;56065;52.472;13.380;2023-06-14T01:18:05;15.32;74.38
69009;SHT31;56065;52.472;13.380;2023-06-14T01:20:33;15.35;74.50
69009;SHT31;56065;52.472;13.380;2023-06-14T01:23:01;15.28;74.74
69009;SHT31;56065;52.472;13.380;2023-06-14T01:25:27;15.22;74.72
69009;SHT31;56065;52.472;13.380;2023-06-14T01:27:57;15.19;75.60
69009;SHT31;56065;52.472;13.380;2023-06-14T01:30:24;15.21;74.92
69009;SHT31;56065;52.472;13.380;2023-06-14T01:32:54;15.16;74.71
69009;SHT31;56065;52.472;13.380;2023-06-14T01:35:20;15.11;75.81
69009;SHT31;56065;52.472;13.380;2023-06-14T01:37:47;15.12;75.69
69009;SHT31;56065;52.472;13.380;2023-06-14T01:40:17;15.12;75.38
69009;SHT31;56065;52.472;13.380;2023-06-14T01:42:43;15.09;75.48
69009;SHT31;56065;52.472;13.380;2023-06-14T01:45:09;15.06;75.82
69009;SHT31;56065;52.472;13.380;2023-06-14T01:47:36;15.04;76.03
69009;SHT31;56065;52.472;13.380;2023-06-14T01:50:04;15.04;75.71
69009;SHT31;56065;52.472;13.380;2023-06-14T01:52:30;14.95;76.18
69009;SHT31;56065;52.472;13.380;2023-06-14T01:54:55;14.95;76.14
69009;SHT31;56065;52.472;13.380;2023-06-14T01:57:22;14.95;76.13
69009;SHT31;56065;52.472;13.380;2023-06-14T01:59:47;14.94;76.05
69009;SHT31;56065;52.472;13.380;2023-06-14T02:02:14;14.91;75.97
69009;SHT31;56065;52.472;13.380;2023-06-14T02:04:40;14.87;76.72
69009;SHT31;56065;52.472;13.380;2023-06-14T02:07:05;14.85;76.46
69009;SHT31;56065;52.472;13.380;2023-06-14T02:09:30;14.85;76.44
69009;SHT31;56065;52.472;13.380;2023-06-14T02:11:56;14.85;76.59
69009;SHT31;56065;52.472;13.380;2023-06-14T02:14:21;14.83;76.58
69009;SHT31;56065;52.472;13.380;2023-06-14T02:16:46;14.81;76.67
69009;SHT31;56065;52.472;13.380;2023-06-14T02:19:18;14.78;76.95
69009;SHT31;56065;52.472;13.380;2023-06-14T02:21:44;14.77;76.86
69009;SHT31;56065;52.472;13.380;2023-06-14T02:24:09;14.77;76.97
69009;SHT31;56065;52.472;13.380;2023-06-14T02:26:35;14.77;77.23
69009;SHT31;56065;52.472;13.380;2023-06-14T02:29:00;14.77;77.00
69009;SHT31;56065;52.472;13.380;2023-06-14T02:31:26;14.73;77.19
69009;SHT31;56065;52.472;13.380;2023-06-14T02:33:52;14.75;77.18
69009;SHT31;56065;52.472;13.380;2023-06-14T02:36:17;14.73;77.70
69009;SHT31;56065;52.472;13.380;2023-06-14T02:38:42;14.68;77.84
69009;SHT31;56065;52.472;13.380;2023-06-14T02:41:08;14.68;78.04
69009;SHT31;56065;52.472;13.380;2023-06-14T02:43:33;14.73;77.80
69009;SHT31;56065;52.472;13.380;2023-06-14T02:45:58;14.71;77.92
69009;SHT31;56065;52.472;13.380;2023-06-14T02:48:24;14.71;77.84
69009;SHT31;56065;52.472;13.380;2023-06-14T02:50:49;14.68;78.25
69009;SHT31;56065;52.472;13.380;2023-06-14T02:53:15;14.67;78.27
69009;SHT31;56065;52.472;13.380;2023-06-14T02:55:41;14.68;78.36
69009;SHT31;56065;52.472;13.380;2023-06-14T02:58:06;14.71;78.17
69009;SHT31;56065;52.472;13.380;2023-06-14T03:00:32;14.68;78.34
69009;SHT31;56065;52.472;13.380;2023-06-14T03:02:57;14.73;77.93
69009;SHT31;56065;52.472;13.380;2023-06-14T03:05:22;14.70;78.54
69009;SHT31;56065;52.472;13.380;2023-06-14T03:07:49;14.68;78.56
69009;SHT31;56065;52.472;13.380;2023-06-14T03:10:15;14.70;78.70
69009;SHT31;56065;52.472;13.380;2023-06-14T03:12:41;14.71;78.56
69009;SHT31;56065;52.472;13.380;2023-06-14T03:15:06;14.67;78.67
69009;SHT31;56065;52.472;13.380;2023-06-14T03:17:32;14.73;78.34
69009;SHT31;56065;52.472;13.380;2023-06-14T03:20:01;14.71;78.57
69009;SHT31;56065;52.472;13.380;2023-06-14T03:22:27;14.73;78.27
69009;SHT31;56065;52.472;13.380;2023-06-14T03:24:53;14.73;78.45
69009;SHT31;56065;52.472;13.380;2023-06-14T03:27:19;14.73;78.47
69009;SHT31;56065;52.472;13.380;2023-06-14T03:29:44;14.75;78.35
69009;SHT31;56065;52.472;13.380;2023-06-14T03:32:10;14.78;78.36
69009;SHT31;56065;52.472;13.380;2023-06-14T03:34:35;14.81;78.18
69009;SHT31;56065;52.472;13.380;2023-06-14T03:37:04;14.83;78.52
69009;SHT31;56065;52.472;13.380;2023-06-14T03:39:30;14.84;78.20
69009;SHT31;56065;52.472;13.380;2023-06-14T03:41:55;14.78;78.44
69009;SHT31;56065;52.472;13.380;2023-06-14T03:44:21;14.81;78.50
69009;SHT31;56065;52.472;13.380;2023-06-14T03:46:46;14.87;78.50
69009;SHT31;56065;52.472;13.380;2023-06-14T03:49:12;14.87;78.38
69009;SHT31;56065;52.472;13.380;2023-06-14T03:51:38;14.84;78.47
69009;SHT31;56065;52.472;13.380;2023-06-14T03:54:05;14.85;78.62
69009;SHT31;56065;52.472;13.380;2023-06-14T03:56:30;14.88;78.46
69009;SHT31;56065;52.472;13.380;2023-06-14T03:58:55;14.85;78.50
69009;SHT31;56065;52.472;13.380;2023-06-14T04:01:21;14.88;78.50
69009;SHT31;56065;52.472;13.380;2023-06-14T04:03:50;14.88;78.37
69009;SHT31;56065;52.472;13.380;2023-06-14T04:06:15;14.91;78.52
69009;SHT31;56065;52.472;13.380;2023-06-14T04:08:44;14.99;78.32
69009;SHT31;56065;52.472;13.380;2023-06-14T04:11:10;15.06;78.42
69009;SHT31;56065;52.472;13.380;2023-06-14T04:13:36;15.19;78.20
69009;SHT31;56065;52.472;13.380;2023-06-14T04:16:03;15.32;77.93
69009;SHT31;56065;52.472;13.380;2023-06-14T04:18:28;15.42;77.75
69009;SHT31;56065;52.472;13.380;2023-06-14T04:20:53;15.47;77.85
69009;SHT31;56065;52.472;13.380;2023-06-14T04:23:19;15.55;77.86
69009;SHT31;56065;52.472;13.380;2023-06-14T04:25:44;15.62;77.57
69009;SHT31;56065;52.472;13.380;2023-06-14T04:28:13;15.62;77.55
69009;SHT31;56065;52.472;13.380;2023-06-14T04:30:43;15.71;77.49
69009;SHT31;56065;52.472;13.380;2023-06-14T04:33:09;15.84;77.27
69009;SHT31;56065;52.472;13.380;2023-06-14T04:35:36;15.98;76.72
69009;SHT31;56065;52.472;13.380;2023-06-14T04:38:03;16.10;76.64
69009;SHT31;56065;52.472;13.380;2023-06-14T04:40:30;16.18;76.13
69009;SHT31;56065;52.472;13.380;2023-06-14T04:42:56;16.28;76.10
69009;SHT31;56065;52.472;13.380;2023-06-14T04:45:22;16.35;75.51
69009;SHT31;56065;52.472;13.380;2023-06-14T04:47:49;16.42;75.17
69009;SHT31;56065;52.472;13.380;2023-06-14T04:50:15;16.55;75.09
69009;SHT31;56065;52.472;13.380;2023-06-14T04:52:41;16.61;75.19
69009;SHT31;56065;52.472;13.380;2023-06-14T04:55:08;16.76;74.62
69009;SHT31;56065;52.472;13.380;2023-06-14T04:57:33;16.82;74.32
69009;SHT31;56065;52.472;13.380;2023-06-14T05:00:00;16.87;74.00
69009;SHT31;56065;52.472;13.380;2023-06-14T05:02:29;16.99;73.94
69009;SHT31;56065;52.472;13.380;2023-06-14T05:04:55;17.13;73.66
69009;SHT31;56065;52.472;13.380;2023-06-14T05:07:22;17.17;73.38
69009;SHT31;56065;52.472;13.380;2023-06-14T05:09:49;17.31;72.98
69009;SHT31;56065;52.472;13.380;2023-06-14T05:12:14;17.44;72.54
69009;SHT31;56065;52.472;13.380;2023-06-14T05:14:43;17.37;72.54
69009;SHT31;56065;52.472;13.380;2023-06-14T05:17:08;17.36;73.14
69009;SHT31;56065;52.472;13.380;2023-06-14T05:19:34;17.45;72.71
69009;SHT31;56065;52.472;13.380;2023-06-14T05:22:00;17.60;72.36
69009;SHT31;56065;52.472;13.380;2023-06-14T05:24:25;17.67;71.29
69009;SHT31;56065;52.472;13.380;2023-06-14T05:26:51;17.84;71.15
69009;SHT31;56065;52.472;13.380;2023-06-14T05:29:16;18.05;71.06
69009;SHT31;56065;52.472;13.380;2023-06-14T05:31:41;18.22;70.63
69009;SHT31;56065;52.472;13.380;2023-06-14T05:34:07;18.30;70.10
69009;SHT31;56065;52.472;13.380;2023-06-14T05:36:32;18.47;69.78
69009;SHT31;56065;52.472;13.380;2023-06-14T05:38:57;18.63;69.61
69009;SHT31;56065;52.472;13.380;2023-06-14T05:41:28;18.81;69.32
69009;SHT31;56065;52.472;13.380;2023-06-14T05:43:56;19.00;68.82
69009;SHT31;56065;52.472;13.380;2023-06-14T05:46:23;19.07;68.31
69009;SHT31;56065;52.472;13.380;2023-06-14T05:48:51;19.18;68.17
69009;SHT31;56065;52.472;13.380;2023-06-14T05:51:17;19.19;67.74
69009;SHT31;56065;52.472;13.380;2023-06-14T05:53:50;19.22;67.33
69009;SHT31;56065;52.472;13.380;2023-06-14T05:56:17;19.12;66.92
69009;SHT31;56065;52.472;13.380;2023-06-14T05:58:43;19.18;67.38
69009;SHT31;56065;52.472;13.380;2023-06-14T06:01:08;19.14;67.48
69009;SHT31;56065;52.472;13.380;2023-06-14T06:03:33;19.05;67.80
69009;SHT31;56065;52.472;13.380;2023-06-14T06:05:59;19.11;68.00
69009;SHT31;56065;52.472;13.380;2023-06-14T06:08:26;19.04;67.82
69009;SHT31;56065;52.472;13.380;2023-06-14T06:10:51;19.03;67.94
69009;SHT31;56065;52.472;13.380;2023-06-14T06:13:17;19.08;67.96
69009;SHT31;56065;52.472;13.380;2023-06-14T06:15:42;19.08;67.93
69009;SHT31;56065;52.472;13.380;2023-06-14T06:18:07;19.14;68.17
69009;SHT31;56065;52.472;13.380;2023-06-14T06:20:33;19.17;68.03
69009;SHT31;56065;52.472;13.380;2023-06-14T06:22:58;19.12;67.82
69009;SHT31;56065;52.472;13.380;2023-06-14T06:25:24;19.01;67.76
69009;SHT31;56065;52.472;13.380;2023-06-14T06:27:51;19.01;67.82
69009;SHT31;56065;52.472;13.380;2023-06-14T06:30:17;19.10;68.24
69009;SHT31;56065;52.472;13.380;2023-06-14T06:32:43;19.08;68.06
69009;SHT31;56065;52.472;13.380;2023-06-14T06:35:08;19.14;67.89
69009;SHT31;56065;52.472;13.380;2023-06-14T06:37:36;19.14;67.75
69009;SHT31;56065;52.472;13.380;2023-06-14T06:40:01;19.14;67.78
69009;SHT31;56065;52.472;13.380;2023-06-14T06:42:29;19.18;67.81
69009;SHT31;56065;52.472;13.380;2023-06-14T06:44:54;19.19;67.60
69009;SHT31;56065;52.472;13.380;2023-06-14T06:47:20;19.18;67.74
69009;SHT31;56065;52.472;13.380;2023-06-14T06:49:45;19.24;67.64
69009;SHT31;56065;52.472;13.380;2023-06-14T06:52:10;19.26;67.59
69009;SHT31;56065;52.472;13.380;2023-06-14T06:54:36;19.48;67.49
69009;SHT31;56065;52.472;13.380;2023-06-14T06:57:01;19.77;67.24
69009;SHT31;56065;52.472;13.380;2023-06-14T06:59:27;20.01;66.58
69009;SHT31;56065;52.472;13.380;2023-06-14T07:01:52;20.33;66.10
69009;SHT31;56065;52.472;13.380;2023-06-14T07:04:18;20.71;65.78
69009;SHT31;56065;52.472;13.380;2023-06-14T07:06:43;20.91;64.82
69009;SHT31;56065;52.472;13.380;2023-06-14T07:09:09;21.20;64.13
69009;SHT31;56065;52.472;13.380;2023-06-14T07:11:38;21.51;63.78
69009;SHT31;56065;52.472;13.380;2023-06-14T07:14:04;21.87;63.22
69009;SHT31;56065;52.472;13.380;2023-06-14T07:16:30;22.12;62.48
69009;SHT31;56065;52.472;13.380;2023-06-14T07:18:55;22.34;61.71
69009;SHT31;56065;52.472;13.380;2023-06-14T07:21:21;22.51;61.13
69009;SHT31;56065;52.472;13.380;2023-06-14T07:23:47;22.55;60.50
69009;SHT31;56065;52.472;13.380;2023-06-14T07:26:12;22.77;60.59
69009;SHT31;56065;52.472;13.380;2023-06-14T07:28:37;22.95;60.32
69009;SHT31;56065;52.472;13.380;2023-06-14T07:31:03;23.41;59.53
69009;SHT31;56065;52.472;13.380;2023-06-14T07:33:28;23.86;58.67
69009;SHT31;56065;52.472;13.380;2023-06-14T07:35:53;24.23;58.21
69009;SHT31;56065;52.472;13.380;2023-06-14T07:38:19;25.24;56.93
69009;SHT31;56065;52.472;13.380;2023-06-14T07:40:45;26.20;54.19
69009;SHT31;56065;52.472;13.380;2023-06-14T07:43:10;27.56;53.42
69009;SHT31;56065;52.472;13.380;2023-06-14T07:45:36;27.66;52.56
69009;SHT31;56065;52.472;13.380;2023-06-14T07:48:02;27.15;52.14
69009;SHT31;56065;52.472;13.380;2023-06-14T07:50:28;26.61;52.79
69009;SHT31;56065;52.472;13.380;2023-06-14T07:52:54;26.37;53.65
69009;SHT31;56065;52.472;13.380;2023-06-14T07:55:19;26.01;53.91
69009;SHT31;56065;52.472;13.380;2023-06-14T07:57:44;25.70;54.10
69009;SHT31;56065;52.472;13.380;2023-06-14T08:00:10;25.72;54.55
69009;SHT31;56065;52.472;13.380;2023-06-14T08:02:43;26.08;54.03
69009;SHT31;56065;52.472;13.380;2023-06-14T08:05:10;26.10;54.17
69009;SHT31;56065;52.472;13.380;2023-06-14T08:07:39;26.07;54.21
69009;SHT31;56065;52.472;13.380;2023-06-14T08:10:05;25.63;53.77
69009;SHT31;56065;52.472;13.380;2023-06-14T08:12:31;25.42;54.11
69009;SHT31;56065;52.472;13.380;2023-06-14T08:14:57;25.47;54.54
69009;SHT31;56065;52.472;13.380;2023-06-14T08:17:22;25.41;54.73
69009;SHT31;56065;52.472;13.380;2023-06-14T08:19:47;25.38;54.96
69009;SHT31;56065;52.472;13.380;2023-06-14T08:22:13;25.31;54.82
69009;SHT31;56065;52.472;13.380;2023-06-14T08:24:38;25.16;54.49
69009;SHT31;56065;52.472;13.380;2023-06-14T08:27:06;25.11;54.90
69009;SHT31;56065;52.472;13.380;2023-06-14T08:29:31;25.38;54.44
69009;SHT31;56065;52.472;13.380;2023-06-14T08:31:57;25.55;53.36
69009;SHT31;56065;52.472;13.380;2023-06-14T08:34:22;25.69;52.92
69009;SHT31;56065;52.472;13.380;2023-06-14T08:36:51;25.62;53.45
69009;SHT31;56065;52.472;13.380;2023-06-14T08:39:16;25.55;53.73
69009;SHT31;56065;52.472;13.380;2023-06-14T08:41:43;25.52;53.82
69009;SHT31;56065;52.472;13.380;2023-06-14T08:44:10;25.39;53.41
69009;SHT31;56065;52.472;13.380;2023-06-14T08:46:37;25.31;53.84
69009;SHT31;56065;52.472;13.380;2023-06-14T08:49:03;25.12;53.88
69009;SHT31;56065;52.472;13.380;2023-06-14T08:51:32;25.19;53.94
69009;SHT31;56065;52.472;13.380;2023-06-14T08:54:02;25.12;53.78
69009;SHT31;56065;52.472;13.380;2023-06-14T08:56:29;25.14;53.65
69009;SHT31;56065;52.472;13.380;2023-06-14T08:58:55;25.16;53.74
69009;SHT31;56065;52.472;13.380;2023-06-14T09:01:22;25.32;53.55
69009;SHT31;56065;52.472;13.380;2023-06-14T09:03:49;25.52;53.10
69009;SHT31;56065;52.472;13.380;2023-06-14T09:06:15;25.67;52.42
69009;SHT31;56065;52.472;13.380;2023-06-14T09:08:45;26.00;52.75
69009;SHT31;56065;52.472;13.380;2023-06-14T09:11:12;26.13;51.72
69009;SHT31;56065;52.472;13.380;2023-06-14T09:13:38;26.43;51.65
69009;SHT31;56065;52.472;13.380;2023-06-14T09:16:05;26.51;51.05
69009;SHT31;56065;52.472;13.380;2023-06-14T09:18:46;26.64;51.17
69009;SHT31;56065;52.472;13.380;2023-06-14T09:21:16;26.79;51.46
69009;SHT31;56065;52.472;13.380;2023-06-14T09:23:45;26.68;51.48
69009;SHT31;56065;52.472;13.380;2023-06-14T09:26:15;26.64;51.36
69009;SHT31;56065;52.472;13.380;2023-06-14T09:28:47;26.52;51.43
69009;SHT31;56065;52.472;13.380;2023-06-14T09:31:14;26.31;51.82
69009;SHT31;56065;52.472;13.380;2023-06-14T09:33:48;26.04;52.18
69009;SHT31;56065;52.472;13.380;2023-06-14T09:36:24;25.94;52.56
69009;SHT31;56065;52.472;13.380;2023-06-14T09:38:57;25.89;53.28
69009;SHT31;56065;52.472;13.380;2023-06-14T09:41:33;25.94;52.78
69009;SHT31;56065;52.472;13.380;2023-06-14T09:44:03;25.96;51.87
69009;SHT31;56065;52.472;13.380;2023-06-14T09:46:29;26.12;52.51
69009;SHT31;56065;52.472;13.380;2023-06-14T09:48:58;26.34;51.36
69009;SHT31;56065;52.472;13.380;2023-06-14T09:51:25;26.65;51.02
69009;SHT31;56065;52.472;13.380;2023-06-14T09:53:51;26.82;50.36
69009;SHT31;56065;52.472;13.380;2023-06-14T09:56:31;26.68;50.43
69009;SHT31;56065;52.472;13.380;2023-06-14T09:58:58;26.74;50.49
69009;SHT31;56065;52.472;13.380;2023-06-14T10:01:24;26.58;50.89
69009;SHT31;56065;52.472;13.380;2023-06-14T10:03:55;26.45;50.88
69009;SHT31;56065;52.472;13.380;2023-06-14T10:06:25;26.43;51.26
69009;SHT31;56065;52.472;13.380;2023-06-14T10:08:56;26.45;51.44
69009;SHT31;56065;52.472;13.380;2023-06-14T10:11:22;26.44;51.39
69009;SHT31;56065;52.472;13.380;2023-06-14T10:13:49;26.45;51.06
69009;SHT31;56065;52.472;13.380;2023-06-14T10:16:20;26.43;50.88
69009;SHT31;56065;52.472;13.380;2023-06-14T10:18:59;26.48;51.19
69009;SHT31;56065;52.472;13.380;2023-06-14T10:24:01;26.54;50.97
69009;SHT31;56065;52.472;13.380;2023-06-14T10:26:28;26.38;50.33
69009;SHT31;56065;52.472;13.380;2023-06-14T10:29:05;26.06;51.66
69009;SHT31;56065;52.472;13.380;2023-06-14T10:34:11;25.70;51.67
69009;SHT31;56065;52.472;13.380;2023-06-14T10:36:38;25.61;52.60
69009;SHT31;56065;52.472;13.380;2023-06-14T10:39:14;25.55;52.85
69009;SHT31;56065;52.472;13.380;2023-06-14T10:41:40;25.38;52.75
69009;SHT31;56065;52.472;13.380;2023-06-14T10:46:46;25.42;52.44
69009;SHT31;56065;52.472;13.380;2023-06-14T10:49:11;25.52;51.93
69009;SHT31;56065;52.472;13.380;2023-06-14T10:51:41;25.70;51.59
69009;SHT31;56065;52.472;13.380;2023-06-14T10:54:15;25.92;51.66
69009;SHT31;56065;52.472;13.380;2023-06-14T10:56:48;26.00;51.04
69009;SHT31;56065;52.472;13.380;2023-06-14T10:59:14;26.01;51.81
69009;SHT31;56065;52.472;13.380;2023-06-14T11:04:52;26.13;51.88
69009;SHT31;56065;52.472;13.380;2023-06-14T11:12:36;26.44;50.92
69009;SHT31;56065;52.472;13.380;2023-06-14T11:15:02;26.71;50.59
69009;SHT31;56065;52.472;13.380;2023-06-14T11:17:28;26.96;50.42
69009;SHT31;56065;52.472;13.380;2023-06-14T11:20:11;27.05;49.56
69009;SHT31;56065;52.472;13.380;2023-06-14T11:22:44;27.26;49.18
69009;SHT31;56065;52.472;13.380;2023-06-14T11:25:11;27.44;49.10
69009;SHT31;56065;52.472;13.380;2023-06-14T11:27:37;27.90;48.57
69009;SHT31;56065;52.472;13.380;2023-06-14T11:30:02;28.41;48.43
69009;SHT31;56065;52.472;13.380;2023-06-14T11:32:28;28.97;47.64
69009;SHT31;56065;52.472;13.380;2023-06-14T11:34:53;29.17;47.01
69009;SHT31;56065;52.472;13.380;2023-06-14T11:37:19;29.43;45.70
69009;SHT31;56065;52.472;13.380;2023-06-14T11:39:45;29.13;45.95
69009;SHT31;56065;52.472;13.380;2023-06-14T11:42:15;28.99;45.97
69009;SHT31;56065;52.472;13.380;2023-06-14T11:44:40;29.23;46.10
69009;SHT31;56065;52.472;13.380;2023-06-14T11:47:06;29.41;45.74
69009;SHT31;56065;52.472;13.380;2023-06-14T11:49:35;29.27;45.21
69009;SHT31;56065;52.472;13.380;2023-06-14T11:52:01;29.35;45.96
69009;SHT31;56065;52.472;13.380;2023-06-14T11:54:27;29.65;45.61
69009;SHT31;56065;52.472;13.380;2023-06-14T11:56:52;29.30;45.23
69009;SHT31;56065;52.472;13.380;2023-06-14T11:59:18;29.08;46.10
69009;SHT31;56065;52.472;13.380;2023-06-14T12:01:43;29.31;45.98
69009;SHT31;56065;52.472;13.380;2023-06-14T12:04:08;29.39;45.86
69009;SHT31;56065;52.472;13.380;2023-06-14T12:06:34;29.59;46.00
69009;SHT31;56065;52.472;13.380;2023-06-14T12:09:05;29.98;45.41
69009;SHT31;56065;52.472;13.380;2023-06-14T12:11:34;30.77;44.29
69009;SHT31;56065;52.472;13.380;2023-06-14T12:13:59;31.45;42.74
69009;SHT31;56065;52.472;13.380;2023-06-14T12:16:31;32.47;41.65
69009;SHT31;56065;52.472;13.380;2023-06-14T12:19:00;33.23;40.92
69009;SHT31;56065;52.472;13.380;2023-06-14T12:21:26;33.77;40.23
69009;SHT31;56065;52.472;13.380;2023-06-14T12:23:53;33.98;40.01
69009;SHT31;56065;52.472;13.380;2023-06-14T12:26:19;34.29;38.84
69009;SHT31;56065;52.472;13.380;2023-06-14T12:28:46;35.43;37.51
69009;SHT31;56065;52.472;13.380;2023-06-14T12:31:14;35.34;36.93
69009;SHT31;56065;52.472;13.380;2023-06-14T12:33:40;35.04;37.17
69009;SHT31;56065;52.472;13.380;2023-06-14T12:36:10;35.50;36.96
69009;SHT31;56065;52.472;13.380;2023-06-14T12:38:36;36.17;36.74
69009;SHT31;56065;52.472;13.380;2023-06-14T12:41:02;36.36;35.90
69009;SHT31;56065;52.472;13.380;2023-06-14T12:43:27;36.11;35.71
69009;SHT31;56065;52.472;13.380;2023-06-14T12:45:53;35.80;35.65
69009;SHT31;56065;52.472;13.380;2023-06-14T12:48:19;35.19;36.63
69009;SHT31;56065;52.472;13.380;2023-06-14T12:50:44;34.62;36.98
69009;SHT31;56065;52.472;13.380;2023-06-14T12:53:10;34.37;37.33
69009;SHT31;56065;52.472;13.380;2023-06-14T12:55:36;33.91;38.01
69009;SHT31;56065;52.472;13.380;2023-06-14T12:58:01;33.52;38.65
69009;SHT31;56065;52.472;13.380;2023-06-14T13:00:26;33.12;38.36
69009;SHT31;56065;52.472;13.380;2023-06-14T13:02:52;32.79;38.19
69009;SHT31;56065;52.472;13.380;2023-06-14T13:05:18;32.38;38.49
69009;SHT31;56065;52.472;13.380;2023-06-14T13:07:44;31.97;38.43
69009;SHT31;56065;52.472;13.380;2023-06-14T13:10:10;31.42;39.03
69009;SHT31;56065;52.472;13.380;2023-06-14T13:12:35;30.88;39.21
69009;SHT31;56065;52.472;13.380;2023-06-14T13:15:01;30.43;39.65
69009;SHT31;56065;52.472;13.380;2023-06-14T13:17:26;30.25;39.97
69009;SHT31;56065;52.472;13.380;2023-06-14T13:19:52;30.81;40.00
69009;SHT31;56065;52.472;13.380;2023-06-14T13:22:17;31.31;38.98
69009;SHT31;56065;52.472;13.380;2023-06-14T13:24:42;31.45;38.92
69009;SHT31;56065;52.472;13.380;2023-06-14T13:27:08;31.43;39.38
69009;SHT31;56065;52.472;13.380;2023-06-14T13:29:33;31.42;38.64
69009;SHT31;56065;52.472;13.380;2023-06-14T13:32:01;31.01;38.61
69009;SHT31;56065;52.472;13.380;2023-06-14T13:34:27;30.63;39.32
69009;SHT31;56065;52.472;13.380;2023-06-14T13:36:52;30.54;39.05
69009;SHT31;56065;52.472;13.380;2023-06-14T13:39:17;30.95;40.09
69009;SHT31;56065;52.472;13.380;2023-06-14T13:41:43;31.34;38.10
69009;SHT31;56065;52.472;13.380;2023-06-14T13:44:08;31.14;38.36
69009;SHT31;56065;52.472;13.380;2023-06-14T13:46:36;31.35;39.65
69009;SHT31;56065;52.472;13.380;2023-06-14T13:49:01;30.70;38.61
69009;SHT31;56065;52.472;13.380;2023-06-14T13:51:27;30.77;39.16
69009;SHT31;56065;52.472;13.380;2023-06-14T13:53:52;31.39;38.54
69009;SHT31;56065;52.472;13.380;2023-06-14T13:56:18;32.00;37.50
69009;SHT31;56065;52.472;13.380;2023-06-14T13:58:44;32.76;37.05
69009;SHT31;56065;52.472;13.380;2023-06-14T14:01:10;32.82;37.12
69009;SHT31;56065;52.472;13.380;2023-06-14T14:03:36;32.68;36.79
69009;SHT31;56065;52.472;13.380;2023-06-14T14:06:02;32.20;36.82
69009;SHT31;56065;52.472;13.380;2023-06-14T14:08:28;31.58;37.79
69009;SHT31;56065;52.472;13.380;2023-06-14T14:10:53;31.05;38.71
69009;SHT31;56065;52.472;13.380;2023-06-14T14:13:19;30.61;38.00
69009;SHT31;56065;52.472;13.380;2023-06-14T14:15:46;29.93;39.51
69009;SHT31;56065;52.472;13.380;2023-06-14T14:18:11;29.65;39.53
69009;SHT31;56065;52.472;13.380;2023-06-14T14:20:36;29.24;39.82
69009;SHT31;56065;52.472;13.380;2023-06-14T14:23:02;28.94;40.52
69009;SHT31;56065;52.472;13.380;2023-06-14T14:25:27;28.87;40.57
69009;SHT31;56065;52.472;13.380;2023-06-14T14:27:53;28.44;40.83
69009;SHT31;56065;52.472;13.380;2023-06-14T14:30:18;28.38;40.88
69009;SHT31;56065;52.472;13.380;2023-06-14T14:32:48;28.26;41.95
69009;SHT31;56065;52.472;13.380;2023-06-14T14:35:14;28.26;42.17
69009;SHT31;56065;52.472;13.380;2023-06-14T14:37:39;28.31;41.58
69009;SHT31;56065;52.472;13.380;2023-06-14T14:40:05;28.29;41.76
69009;SHT31;56065;52.472;13.380;2023-06-14T14:42:31;28.60;41.51
69009;SHT31;56065;52.472;13.380;2023-06-14T14:44:56;28.63;41.49
69009;SHT31;56065;52.472;13.380;2023-06-14T14:47:22;28.72;41.86
69009;SHT31;56065;52.472;13.380;2023-06-14T14:49:47;29.08;41.86
69009;SHT31;56065;52.472;13.380;2023-06-14T14:52:12;29.62;40.89
69009;SHT31;56065;52.472;13.380;2023-06-14T14:54:38;29.79;40.10
69009;SHT31;56065;52.472;13.380;2023-06-14T14:57:04;29.30;40.50
69009;SHT31;56065;52.472;13.380;2023-06-14T14:59:30;28.79;40.94
69009;SHT31;56065;52.472;13.380;2023-06-14T15:01:55;28.31;41.42
69009;SHT31;56065;52.472;13.380;2023-06-14T15:04:21;28.15;42.21
69009;SHT31;56065;52.472;13.380;2023-06-14T15:06:46;27.90;42.44
69009;SHT31;56065;52.472;13.380;2023-06-14T15:09:11;27.74;42.37
69009;SHT31;56065;52.472;13.380;2023-06-14T15:11:37;27.50;43.04
69009;SHT31;56065;52.472;13.380;2023-06-14T15:14:02;27.29;43.27
69009;SHT31;56065;52.472;13.380;2023-06-14T15:16:27;27.03;44.33
69009;SHT31;56065;52.472;13.380;2023-06-14T15:18:53;26.78;44.50
69009;SHT31;56065;52.472;13.380;2023-06-14T15:21:18;26.56;44.22
69009;SHT31;56065;52.472;13.380;2023-06-14T15:23:45;26.37;44.72
69009;SHT31;56065;52.472;13.380;2023-06-14T15:26:11;26.23;45.13
69009;SHT31;56065;52.472;13.380;2023-06-14T15:28:36;26.10;45.08
69009;SHT31;56065;52.472;13.380;2023-06-14T15:31:02;26.08;45.22
69009;SHT31;56065;52.472;13.380;2023-06-14T15:33:27;25.93;45.44